createdAt,value
2019-01-18T00:00:35.627Z,0.30
2019-01-18T00:03:03.279Z,0.23
2019-01-18T00:05:30.794Z,0.40
2019-01-18T00:07:58.137Z,1.93
2019-01-18T00:10:25.581Z,0.60
2019-01-18T00:12:53.149Z,0.33
2019-01-18T00:15:20.748Z,1.30
2019-01-18T00:17:48.228Z,1.03
2019-01-18T00:20:16.339Z,0.87
2019-01-18T00:22:43.861Z,0.30
2019-01-18T00:25:12.459Z,1.33
2019-01-18T00:27:39.896Z,0.70
2019-01-18T00:30:07.536Z,1.60
2019-01-18T00:32:35.180Z,1.30
2019-01-18T00:35:02.810Z,0.50
2019-01-18T00:37:30.241Z,0.20
2019-01-18T00:39:57.897Z,0.33
2019-01-18T00:42:25.387Z,0.60
2019-01-18T00:44:52.939Z,1.23
2019-01-18T00:47:20.589Z,0.87
2019-01-18T00:49:48.185Z,0.30
2019-01-18T00:52:15.800Z,0.43
2019-01-18T00:54:43.364Z,0.27
2019-01-18T00:57:10.894Z,0.30
2019-01-18T00:59:38.811Z,0.33
2019-01-18T01:02:06.264Z,0.30
2019-01-18T01:04:33.581Z,0.33
2019-01-18T01:07:01.180Z,1.83
2019-01-18T01:09:29.728Z,0.30
2019-01-18T01:11:57.307Z,0.40
2019-01-18T01:14:25.064Z,0.27
2019-01-18T01:16:52.401Z,0.40
2019-01-18T01:19:19.836Z,0.50
2019-01-18T01:21:47.508Z,0.80
2019-01-18T01:24:14.817Z,0.20
2019-01-18T01:26:42.336Z,0.43
2019-01-18T01:29:09.989Z,0.40
2019-01-18T01:31:37.573Z,0.70
2019-01-18T01:34:05.365Z,1.30
2019-01-18T01:36:32.734Z,0.40
2019-01-18T01:39:00.159Z,0.53
2019-01-18T01:41:27.585Z,0.40
2019-01-18T01:43:55.295Z,0.30
2019-01-18T01:46:22.940Z,0.30
2019-01-18T01:48:51.439Z,0.47
2019-01-18T01:51:19.058Z,0.33
2019-01-18T01:53:46.600Z,0.47
2019-01-18T01:56:14.184Z,0.40
2019-01-18T01:58:41.798Z,0.33
2019-01-18T02:01:09.436Z,0.30
2019-01-18T02:03:37.029Z,0.57
2019-01-18T02:06:04.543Z,0.47
2019-01-18T02:08:31.963Z,0.20
2019-01-18T02:10:59.431Z,0.30
2019-01-18T02:13:27.032Z,0.37
2019-01-18T02:15:54.654Z,0.43
2019-01-18T02:18:22.127Z,0.57
2019-01-18T02:20:49.583Z,0.30
2019-01-18T02:23:16.908Z,0.40
2019-01-18T02:25:44.536Z,0.37
2019-01-18T02:28:12.056Z,0.40
2019-01-18T02:30:39.723Z,0.30
2019-01-18T02:33:07.444Z,0.30
2019-01-18T02:35:34.976Z,0.53
2019-01-18T02:38:02.684Z,0.57
2019-01-18T02:40:30.017Z,0.40
2019-01-18T02:42:57.588Z,0.37
2019-01-18T02:45:25.137Z,0.40
2019-01-18T02:47:52.731Z,0.53
2019-01-18T02:50:20.466Z,0.30
2019-01-18T02:52:47.985Z,0.40
2019-01-18T02:55:16.551Z,0.20
2019-01-18T02:57:44.129Z,0.30
2019-01-18T03:00:14.404Z,0.40
2019-01-18T03:02:41.920Z,0.50
2019-01-18T03:05:10.416Z,0.50
2019-01-18T03:07:38.222Z,0.30
2019-01-18T03:10:10.532Z,0.60
2019-01-18T03:12:38.583Z,0.40
2019-01-18T03:15:06.364Z,0.30
2019-01-18T03:17:33.848Z,0.30
2019-01-18T03:20:01.365Z,0.40
2019-01-18T03:22:28.950Z,0.40
2019-01-18T03:24:56.528Z,0.20
2019-01-18T03:27:24.144Z,0.47
2019-01-18T03:29:51.695Z,0.30
2019-01-18T03:32:19.130Z,0.40
2019-01-18T03:34:46.615Z,0.40
2019-01-18T03:37:14.157Z,0.30
2019-01-18T03:39:41.632Z,0.50
2019-01-18T03:42:09.129Z,0.40
2019-01-18T03:44:36.655Z,0.27
2019-01-18T03:47:03.996Z,0.30
2019-01-18T03:49:31.543Z,0.33
2019-01-18T03:51:58.925Z,0.40
2019-01-18T03:54:26.382Z,0.40
2019-01-18T03:56:53.905Z,0.30
2019-01-18T03:59:21.464Z,0.30
2019-01-18T04:01:48.910Z,0.57
2019-01-18T04:04:16.498Z,0.30
2019-01-18T04:06:44.018Z,0.60
2019-01-18T04:09:11.474Z,0.30
2019-01-18T04:11:39.167Z,0.50
2019-01-18T04:14:06.832Z,0.40
2019-01-18T04:16:34.516Z,0.33
2019-01-18T04:19:01.964Z,0.30
2019-01-18T04:21:29.577Z,0.30
2019-01-18T04:23:57.056Z,0.50
2019-01-18T04:26:24.547Z,0.30
2019-01-18T04:28:52.083Z,0.40
2019-01-18T04:31:19.553Z,0.50
2019-01-18T04:33:47.130Z,0.53
2019-01-18T04:36:14.709Z,0.37
2019-01-18T04:38:45.195Z,0.50
2019-01-18T04:41:12.772Z,0.30
2019-01-18T04:43:40.324Z,0.50
2019-01-18T04:46:07.899Z,0.40
2019-01-18T04:48:35.327Z,0.50
2019-01-18T04:51:02.787Z,0.40
2019-01-18T04:53:30.125Z,0.37
2019-01-18T04:55:57.543Z,0.30
2019-01-18T04:58:26.574Z,0.27
2019-01-18T05:00:54.595Z,0.40
2019-01-18T05:03:22.010Z,0.43
2019-01-18T05:05:50.163Z,0.20
2019-01-18T05:08:17.503Z,0.17
2019-01-18T05:10:45.045Z,0.33
2019-01-18T05:13:12.413Z,0.30
2019-01-18T05:15:40.035Z,0.40
2019-01-18T05:18:07.611Z,0.30
2019-01-18T05:20:35.048Z,0.27
2019-01-18T05:23:02.518Z,0.30
2019-01-18T05:25:29.886Z,0.30
2019-01-18T05:27:57.426Z,0.40
2019-01-18T05:30:29.033Z,0.23
2019-01-18T05:32:56.587Z,0.33
2019-01-18T05:35:24.118Z,0.20
2019-01-18T05:37:51.402Z,0.30
2019-01-18T05:40:19.281Z,0.50
2019-01-18T05:42:46.618Z,0.30
2019-01-18T05:45:15.719Z,0.23
2019-01-18T05:47:43.348Z,0.20
2019-01-18T05:50:13.126Z,0.23
2019-01-18T05:52:40.656Z,0.23
2019-01-18T05:55:08.261Z,0.30
2019-01-18T05:57:35.528Z,0.23
2019-01-18T06:00:03.853Z,0.30
2019-01-18T06:02:31.079Z,0.10
2019-01-18T06:04:59.042Z,0.30
2019-01-18T06:07:26.561Z,0.30
2019-01-18T06:09:54.902Z,0.40
2019-01-18T06:12:22.385Z,0.30
2019-01-18T06:14:49.880Z,0.20
2019-01-18T06:17:17.638Z,0.40
2019-01-18T06:19:45.195Z,0.30
2019-01-18T06:22:12.776Z,0.30
2019-01-18T06:24:40.197Z,0.30
2019-01-18T06:27:07.739Z,0.30
2019-01-18T06:29:35.963Z,0.33
2019-01-18T06:32:03.513Z,0.47
2019-01-18T06:34:31.041Z,0.40
2019-01-18T06:36:58.617Z,0.30
2019-01-18T06:39:26.231Z,0.30
2019-01-18T06:41:54.211Z,0.30
2019-01-18T06:44:22.439Z,0.27
2019-01-18T06:46:50.390Z,0.20
2019-01-18T06:49:18.445Z,0.30
2019-01-18T06:51:46.069Z,0.30
2019-01-18T06:54:13.841Z,0.33
2019-01-18T06:56:41.403Z,0.20
2019-01-18T06:59:08.899Z,0.23
2019-01-18T07:01:37.765Z,0.20
2019-01-18T07:04:04.975Z,0.30
2019-01-18T07:06:33.543Z,0.57
2019-01-18T07:09:00.915Z,0.47
2019-01-18T07:11:28.378Z,0.23
2019-01-18T07:13:55.829Z,0.20
2019-01-18T07:16:23.381Z,0.20
2019-01-18T07:18:51.085Z,0.30
2019-01-18T07:21:19.676Z,0.40
2019-01-18T07:23:47.211Z,0.30
2019-01-18T07:26:14.584Z,0.33
2019-01-18T07:28:42.112Z,0.30
2019-01-18T07:31:15.084Z,0.30
2019-01-18T07:33:40.158Z,0.50
2019-01-18T07:36:09.278Z,0.20
2019-01-18T07:38:36.865Z,0.40
2019-01-18T07:41:04.412Z,0.40
2019-01-18T07:43:31.722Z,0.30
2019-01-18T07:45:59.241Z,0.27
2019-01-18T07:48:26.770Z,0.30
2019-01-18T07:50:54.219Z,0.30
2019-01-18T07:53:21.856Z,0.20
2019-01-18T07:55:49.337Z,0.40
2019-01-18T07:58:16.993Z,0.20
2019-01-18T08:00:44.541Z,0.70
2019-01-18T08:03:12.118Z,0.30
2019-01-18T08:05:39.715Z,0.30
2019-01-18T08:08:07.229Z,0.30
2019-01-18T08:10:34.571Z,0.20
2019-01-18T08:13:02.105Z,0.30
2019-01-18T08:15:29.586Z,0.30
2019-01-18T08:17:56.944Z,0.30
2019-01-18T08:20:25.665Z,0.37
2019-01-18T08:22:54.156Z,0.23
2019-01-18T08:25:21.611Z,0.10
2019-01-18T08:27:50.163Z,0.30
2019-01-18T08:30:19.679Z,0.20
2019-01-18T08:35:06.894Z,0.30
2019-01-18T08:37:37.155Z,0.50
2019-01-18T08:40:12.028Z,0.20
2019-01-18T08:42:39.606Z,0.40
2019-01-18T08:45:09.146Z,0.20
2019-01-18T08:47:36.591Z,0.20
2019-01-18T08:50:06.200Z,0.20
2019-01-18T08:52:34.551Z,0.13
2019-01-18T08:55:02.484Z,0.40
2019-01-18T08:57:29.803Z,0.30
2019-01-18T08:59:57.331Z,0.20
2019-01-18T09:02:24.847Z,0.17
2019-01-18T09:04:52.459Z,0.40
2019-01-18T09:07:19.941Z,0.57
2019-01-18T09:09:47.312Z,0.20
2019-01-18T09:12:14.885Z,0.33
2019-01-18T09:14:42.398Z,0.27
2019-01-18T09:17:10.055Z,0.30
2019-01-18T09:19:38.017Z,0.30
2019-01-18T09:22:05.511Z,0.37
2019-01-18T09:25:06.440Z,0.40
2019-01-18T09:27:34.002Z,0.30
2019-01-18T09:30:01.671Z,0.30
2019-01-18T09:32:29.301Z,0.30
2019-01-18T09:34:56.867Z,0.37
2019-01-18T09:37:24.266Z,0.30
2019-01-18T09:39:51.606Z,0.30
2019-01-18T09:42:19.308Z,0.20
2019-01-18T09:44:46.661Z,0.23
2019-01-18T09:47:14.209Z,0.10
2019-01-18T09:49:42.817Z,0.20
2019-01-18T09:52:10.614Z,0.30
2019-01-18T09:54:38.338Z,0.20
2019-01-18T09:57:05.912Z,0.30
2019-01-18T09:59:33.433Z,0.20
2019-01-18T10:02:00.779Z,0.20
2019-01-18T10:04:30.050Z,0.20
2019-01-18T10:06:57.579Z,0.30
2019-01-18T10:09:25.153Z,0.20
2019-01-18T10:11:52.565Z,0.20
2019-01-18T10:14:21.118Z,0.20
2019-01-18T10:16:48.544Z,0.30
2019-01-18T10:19:16.111Z,0.20
2019-01-18T10:21:43.647Z,0.30
2019-01-18T10:24:11.222Z,0.20
2019-01-18T10:26:40.418Z,0.30
2019-01-18T10:29:07.984Z,0.23
2019-01-18T10:31:36.837Z,0.17
2019-01-18T10:34:04.546Z,0.30
2019-01-18T10:36:31.867Z,0.20
2019-01-18T10:38:59.343Z,0.20
2019-01-18T10:41:26.875Z,0.30
2019-01-18T10:43:54.651Z,0.30
2019-01-18T10:46:22.151Z,0.30
2019-01-18T10:48:49.583Z,0.20
2019-01-18T10:51:17.101Z,0.20
2019-01-18T10:53:44.506Z,0.30
2019-01-18T10:56:12.903Z,0.30
2019-01-18T10:58:40.477Z,0.30
2019-01-18T11:01:12.802Z,0.40
2019-01-18T11:03:40.400Z,0.20
2019-01-18T11:06:07.733Z,0.30
2019-01-18T11:08:35.289Z,0.30
2019-01-18T11:11:02.838Z,0.40
2019-01-18T11:13:30.386Z,0.20
2019-01-18T11:15:57.911Z,0.30
2019-01-18T11:18:25.566Z,0.30
2019-01-18T11:20:59.999Z,0.47
2019-01-18T11:23:27.406Z,0.20
2019-01-18T11:25:54.893Z,0.30
2019-01-18T11:28:22.605Z,0.30
2019-01-18T11:30:50.387Z,0.30
2019-01-18T11:33:17.952Z,0.40
2019-01-18T11:35:45.484Z,0.40
2019-01-18T11:38:12.800Z,0.20
2019-01-18T11:40:40.231Z,0.30
2019-01-18T11:43:07.812Z,0.30
2019-01-18T11:45:35.383Z,0.30
2019-01-18T11:48:02.749Z,0.13
2019-01-18T11:50:30.050Z,0.30
2019-01-18T11:52:57.545Z,0.57
2019-01-18T11:55:25.008Z,0.30
2019-01-18T11:57:52.542Z,0.20
2019-01-18T12:00:22.023Z,0.20
2019-01-18T12:02:49.602Z,0.30
2019-01-18T12:05:17.760Z,0.30
2019-01-18T12:07:45.369Z,0.30
2019-01-18T12:10:24.425Z,0.47
2019-01-18T12:12:51.990Z,0.20
2019-01-18T12:15:20.111Z,0.30
2019-01-18T12:17:47.788Z,0.30
2019-01-18T12:20:23.738Z,0.20
2019-01-18T12:22:52.209Z,0.20
2019-01-18T12:25:19.787Z,0.10
2019-01-18T12:30:42.463Z,0.30
2019-01-18T12:33:10.238Z,0.30
2019-01-18T12:35:37.855Z,0.20
2019-01-18T12:38:05.377Z,0.20
2019-01-18T12:40:32.996Z,0.30
2019-01-18T12:43:00.590Z,0.40
2019-01-18T12:45:28.111Z,0.37
2019-01-18T12:47:55.637Z,0.20
2019-01-18T12:50:34.375Z,0.20
2019-01-18T12:53:01.903Z,0.30
2019-01-18T12:55:29.456Z,0.20
2019-01-18T12:57:57.307Z,0.30
2019-01-18T13:00:25.997Z,0.20
2019-01-18T13:02:54.771Z,0.10
2019-01-18T13:05:32.595Z,0.20
2019-01-18T13:08:01.926Z,0.20
2019-01-18T13:10:29.705Z,0.60
2019-01-18T13:12:57.117Z,0.30
2019-01-18T13:15:37.168Z,0.30
2019-01-18T13:18:04.508Z,0.20
2019-01-18T13:20:32.084Z,0.27
2019-01-18T13:22:59.641Z,0.20
2019-01-18T13:25:27.203Z,0.30
2019-01-18T13:27:54.917Z,0.20
2019-01-18T13:30:22.481Z,0.20
2019-01-18T13:32:49.845Z,0.20
2019-01-18T13:35:17.331Z,0.10
2019-01-18T13:37:46.554Z,0.20
2019-01-18T13:40:16.173Z,0.20
2019-01-18T13:42:43.597Z,0.37
2019-01-18T13:45:11.154Z,0.30
2019-01-18T13:47:39.893Z,0.30
2019-01-18T13:50:09.783Z,0.20
2019-01-18T13:52:37.370Z,0.10
2019-01-18T13:55:07.152Z,0.20
2019-01-18T13:57:34.715Z,0.30
2019-01-18T14:00:02.340Z,0.27
2019-01-18T14:02:29.860Z,0.20
2019-01-18T14:04:57.352Z,0.30
2019-01-18T14:07:24.809Z,0.17
2019-01-18T14:09:52.369Z,0.20
2019-01-18T14:12:19.795Z,0.17
2019-01-18T14:14:47.224Z,0.27
2019-01-18T14:17:14.905Z,0.10
2019-01-18T14:19:42.328Z,0.27
2019-01-18T14:22:09.672Z,0.20
2019-01-18T14:24:38.199Z,0.17
2019-01-18T14:27:05.859Z,0.20
2019-01-18T14:29:34.131Z,0.10
2019-01-18T14:32:01.679Z,0.30
2019-01-18T14:34:29.266Z,0.20
2019-01-18T14:36:56.829Z,0.27
2019-01-18T14:39:24.402Z,0.10
2019-01-18T14:41:52.000Z,0.20
2019-01-18T14:44:19.486Z,0.20
2019-01-18T14:46:47.007Z,0.10
2019-01-18T14:49:14.464Z,0.20
2019-01-18T14:51:41.967Z,0.20
2019-01-18T14:54:10.656Z,0.10
2019-01-18T14:56:38.330Z,0.47
2019-01-18T14:59:05.880Z,0.30
2019-01-18T15:01:34.725Z,0.10
2019-01-18T15:04:02.443Z,0.10
2019-01-18T15:06:29.999Z,0.20
2019-01-18T15:08:57.586Z,0.23
2019-01-18T15:11:25.272Z,0.20
2019-01-18T15:13:52.844Z,0.10
2019-01-18T15:16:20.164Z,0.30
2019-01-18T15:18:47.767Z,0.30
2019-01-18T15:21:15.117Z,0.23
2019-01-18T15:23:42.775Z,0.27
2019-01-18T15:26:10.335Z,0.10
2019-01-18T15:28:40.950Z,0.20
2019-01-18T15:31:12.925Z,0.20
2019-01-18T15:33:42.233Z,0.20
2019-01-18T15:36:11.131Z,0.20
2019-01-18T15:38:39.095Z,0.10
2019-01-18T15:41:06.803Z,0.20
2019-01-18T15:43:35.407Z,0.27
2019-01-18T15:46:02.994Z,0.20
2019-01-18T15:48:30.538Z,0.20
2019-01-18T15:50:58.018Z,0.20
2019-01-18T15:53:25.519Z,0.20
2019-01-18T15:55:53.050Z,0.20
2019-01-18T15:58:20.864Z,0.10
2019-01-18T16:00:49.201Z,0.30
2019-01-18T16:03:16.988Z,0.23
2019-01-18T16:05:44.564Z,0.10
2019-01-18T16:08:13.491Z,0.30
2019-01-18T16:10:41.016Z,0.23
2019-01-18T16:13:09.627Z,0.17
2019-01-18T16:15:44.108Z,0.10
2019-01-18T16:18:13.242Z,0.10
2019-01-18T16:20:40.818Z,0.10
2019-01-18T16:23:08.381Z,0.20
2019-01-18T16:25:35.945Z,0.20
2019-01-18T16:28:03.802Z,0.27
2019-01-18T16:30:31.601Z,0.20
2019-01-18T16:32:59.275Z,0.10
2019-01-18T16:35:28.418Z,0.10
2019-01-18T16:37:56.095Z,0.37
2019-01-18T16:40:26.599Z,0.20
2019-01-18T16:43:12.582Z,0.20
2019-01-18T16:45:40.092Z,0.17
2019-01-18T16:48:07.637Z,0.00
2019-01-18T16:50:36.348Z,0.10
2019-01-18T16:53:03.999Z,0.10
2019-01-18T16:55:31.582Z,0.13
2019-01-18T16:57:59.189Z,0.10
2019-01-18T17:00:33.372Z,0.10
2019-01-18T17:03:00.708Z,0.10
2019-01-18T17:05:28.725Z,0.10
2019-01-18T17:07:56.306Z,0.10
2019-01-18T17:10:23.844Z,0.10
2019-01-18T17:12:53.291Z,0.10
2019-01-18T17:15:22.955Z,0.10
2019-01-18T17:17:50.506Z,0.20
2019-01-18T17:20:21.938Z,0.13
2019-01-18T17:22:49.828Z,0.10
2019-01-18T17:25:18.835Z,0.10
2019-01-18T17:27:46.287Z,0.10
2019-01-18T17:30:16.201Z,0.10
2019-01-18T17:32:44.201Z,0.20
2019-01-18T17:35:14.066Z,0.27
2019-01-18T17:37:45.362Z,0.10
2019-01-18T17:40:29.027Z,0.10
2019-01-18T17:43:41.204Z,0.10
2019-01-18T17:47:02.054Z,0.10
2019-01-18T17:50:23.724Z,0.10
2019-01-18T17:53:28.963Z,0.20
2019-01-18T17:56:33.930Z,0.00
2019-01-18T17:59:29.796Z,0.27
2019-01-18T18:02:35.639Z,0.10
2019-01-18T18:05:54.467Z,0.20
2019-01-18T18:09:08.123Z,0.30
2019-01-18T18:12:06.963Z,0.10
2019-01-18T18:15:28.383Z,0.20
2019-01-18T18:18:10.362Z,0.20
2019-01-18T18:21:25.522Z,0.10
2019-01-18T18:24:33.266Z,0.20
2019-01-18T18:30:36.943Z,0.10
2019-01-18T18:33:15.863Z,0.20
2019-01-18T18:36:26.076Z,0.20
2019-01-18T18:40:00.201Z,0.10
2019-01-18T18:43:09.095Z,0.10
2019-01-18T18:46:20.408Z,0.10
2019-01-18T18:49:23.734Z,0.10
2019-01-18T18:52:33.308Z,0.20
2019-01-18T18:55:55.435Z,0.10
2019-01-18T18:59:00.417Z,0.10
2019-01-18T19:01:50.780Z,0.10
2019-01-18T19:05:05.571Z,0.20
2019-01-18T19:07:59.391Z,0.20
2019-01-18T19:11:11.428Z,0.10
2019-01-18T19:14:26.836Z,0.20
2019-01-18T19:17:09.779Z,0.10
2019-01-18T19:20:31.226Z,0.10
2019-01-18T19:23:36.595Z,0.13
2019-01-18T19:27:01.420Z,0.10
2019-01-18T19:30:10.708Z,0.10
2019-01-18T19:33:14.784Z,0.20
2019-01-18T19:36:22.113Z,0.10
2019-01-18T19:39:19.094Z,0.10
2019-01-18T19:42:03.610Z,0.17
2019-01-18T19:45:25.169Z,0.20
2019-01-18T19:48:16.240Z,0.20
2019-01-18T19:51:10.820Z,0.10
2019-01-18T19:53:59.295Z,0.20
2019-01-18T19:57:05.335Z,0.03
2019-01-18T20:00:23.793Z,0.13
2019-01-18T20:03:35.550Z,0.17
2019-01-18T20:07:15.919Z,0.10
2019-01-18T20:10:13.384Z,0.10
2019-01-18T20:13:13.106Z,0.10
2019-01-18T20:15:54.888Z,0.17
2019-01-18T20:19:16.200Z,0.20
2019-01-18T20:22:03.398Z,0.17
2019-01-18T20:24:51.290Z,0.10
2019-01-18T20:27:49.015Z,0.13
2019-01-18T20:30:47.354Z,0.30
2019-01-18T20:33:53.886Z,0.10
2019-01-18T20:36:58.793Z,0.10
2019-01-18T20:40:00.373Z,0.10
2019-01-18T20:43:00.201Z,0.10
2019-01-18T20:45:57.267Z,0.10
2019-01-18T20:49:00.948Z,0.10
2019-01-18T20:52:12.156Z,0.10
2019-01-18T20:55:29.801Z,0.10
2019-01-18T20:58:39.531Z,0.30
2019-01-18T21:01:42.372Z,0.00
2019-01-18T21:04:33.122Z,0.20
2019-01-18T21:07:44.985Z,0.10
2019-01-18T21:10:37.227Z,0.10
2019-01-18T21:13:24.800Z,0.20
2019-01-18T21:16:43.456Z,0.10
2019-01-18T21:19:59.082Z,0.00
2019-01-18T21:22:57.368Z,0.57
2019-01-18T21:25:51.786Z,22.67
2019-01-18T21:28:41.916Z,32.73
2019-01-18T21:31:36.194Z,43.73
2019-01-18T21:34:32.985Z,114.63
2019-01-18T21:37:27.542Z,96.90
2019-01-18T21:40:39.072Z,153.77
2019-01-18T21:43:30.127Z,158.20
2019-01-18T21:46:28.684Z,179.77
2019-01-18T21:49:24.845Z,268.53
2019-01-18T21:52:30.581Z,290.00
2019-01-18T21:55:26.842Z,398.57
2019-01-18T21:58:17.668Z,380.37
2019-01-18T22:01:42.212Z,397.83
2019-01-18T22:04:50.278Z,368.87
2019-01-18T22:08:07.317Z,354.50
2019-01-18T22:11:08.483Z,343.80
2019-01-18T22:14:28.428Z,336.87
2019-01-18T22:17:37.425Z,333.10
2019-01-18T22:20:42.667Z,324.20
2019-01-18T22:23:38.443Z,317.27
2019-01-18T22:26:22.831Z,311.73
2019-01-18T22:29:44.502Z,309.80
2019-01-18T22:32:41.157Z,296.83
2019-01-18T22:36:01.804Z,288.97
2019-01-18T22:39:07.767Z,282.37
2019-01-18T22:42:05.165Z,275.20
2019-01-18T22:45:04.704Z,260.77
2019-01-18T22:48:15.691Z,263.53
2019-01-18T22:51:29.006Z,259.90
2019-01-18T22:54:57.875Z,265.67
2019-01-18T22:58:03.202Z,255.57
2019-01-18T23:01:14.504Z,244.40
2019-01-18T23:04:14.964Z,250.53
2019-01-18T23:07:26.299Z,237.10
2019-01-18T23:10:22.039Z,238.50
2019-01-18T23:13:36.942Z,230.70
2019-01-18T23:17:00.754Z,230.30
2019-01-18T23:20:06.191Z,210.00
2019-01-18T23:23:27.480Z,213.10
2019-01-18T23:26:47.933Z,208.23
2019-01-18T23:29:39.807Z,208.90
2019-01-18T23:32:46.563Z,209.73
2019-01-18T23:35:39.455Z,197.67
2019-01-18T23:39:08.121Z,200.60
2019-01-18T23:42:18.722Z,187.40
2019-01-18T23:45:21.700Z,187.07
2019-01-18T23:48:11.862Z,185.70
2019-01-18T23:50:58.299Z,178.57
2019-01-18T23:53:47.004Z,178.23
2019-01-18T23:56:38.805Z,177.60
2019-01-18T23:59:20.366Z,166.13
